Terminal Aerodrome Forecast
Issued by NWS Wilmington, NC

Home | Current Version | Previous Version | Text Only | Print | Product List | Glossary On
Versions: 1 2 3 4 5 6 7 8 9 10 11 12
425
FTUS42 KILM 220540
TAFLBT
TAF
KLBT 220540Z 2206/2306 09004KT P6SM BKN250
     FM221000 09002KT 5SM BR BKN250
     FM221400 12005KT P6SM BKN100 OVC250
     FM230000 08002KT P6SM SCT100 OVC250=

USA.gov is the U.S. government's official web portal to all federal, state and local government web resources and services.